sensor_id;sensor_type;location;lat;lon;timestamp;temperature;humidity
44447;DHT22;30152;52.066;5.358;2023-01-19T08:07:06;2.00;99.90
44447;DHT22;30152;52.066;5.358;2023-01-19T08:09:33;2.20;99.90
44447;DHT22;30152;52.066;5.358;2023-01-19T08:11:59;1.90;99.90
44447;DHT22;30152;52.066;5.358;2023-01-19T08:14:24;2.90;99.90
44447;DHT22;30152;52.066;5.358;2023-01-19T08:16:50;2.30;99.90
44447;DHT22;30152;52.066;5.358;2023-01-19T08:19:15;2.20;99.90
44447;DHT22;30152;52.066;5.358;2023-01-19T08:21:43;2.30;99.90
44447;DHT22;30152;52.066;5.358;2023-01-19T08:24:16;2.20;99.90
44447;DHT22;30152;52.066;5.358;2023-01-19T08:26:42;1.60;99.90
44447;DHT22;30152;52.066;5.358;2023-01-19T08:29:08;2.00;99.90
44447;DHT22;30152;52.066;5.358;2023-01-19T08:31:33;2.20;99.90
44447;DHT22;30152;52.066;5.358;2023-01-19T08:36:25;2.20;99.90
44447;DHT22;30152;52.066;5.358;2023-01-19T08:38:52;2.40;99.90
44447;DHT22;30152;52.066;5.358;2023-01-19T08:41:17;2.30;99.90
44447;DHT22;30152;52.066;5.358;2023-01-19T08:43:43;1.90;99.90
44447;DHT22;30152;52.066;5.358;2023-01-19T08:46:10;2.20;99.90
44447;DHT22;30152;52.066;5.358;2023-01-19T08:48:35;2.20;99.90
44447;DHT22;30152;52.066;5.358;2023-01-19T08:51:01;2.40;99.90
44447;DHT22;30152;52.066;5.358;2023-01-19T08:53:27;2.30;99.90
44447;DHT22;30152;52.066;5.358;2023-01-19T08:55:54;2.90;99.90
44447;DHT22;30152;52.066;5.358;2023-01-19T08:58:22;3.80;99.90
44447;DHT22;30152;52.066;5.358;2023-01-19T09:13:06;3.50;99.90
44447;DHT22;30152;52.066;5.358;2023-01-19T09:15:35;3.60;99.90
44447;DHT22;30152;52.066;5.358;2023-01-19T09:18:03;3.40;99.90
44447;DHT22;30152;52.066;5.358;2023-01-19T09:20:29;3.40;99.90
44447;DHT22;30152;52.066;5.358;2023-01-19T09:22:56;3.30;99.90
44447;DHT22;30152;52.066;5.358;2023-01-19T09:27:48;3.30;99.90
44447;DHT22;30152;52.066;5.358;2023-01-19T09:30:14;3.30;99.90
44447;DHT22;30152;52.066;5.358;2023-01-19T09:32:41;3.90;99.90
44447;DHT22;30152;52.066;5.358;2023-01-19T09:35:07;3.40;99.90
44447;DHT22;30152;52.066;5.358;2023-01-19T09:45:03;5.70;99.90
44447;DHT22;30152;52.066;5.358;2023-01-19T09:50:05;4.00;99.90
44447;DHT22;30152;52.066;5.358;2023-01-19T09:52:34;4.30;99.90
44447;DHT22;30152;52.066;5.358;2023-01-19T09:55:01;4.60;99.90
44447;DHT22;30152;52.066;5.358;2023-01-19T09:57:27;5.10;99.90
44447;DHT22;30152;52.066;5.358;2023-01-19T09:59:54;5.10;99.90
44447;DHT22;30152;52.066;5.358;2023-01-19T10:02:35;5.80;99.90
44447;DHT22;30152;52.066;5.358;2023-01-19T10:10:30;6.40;99.90
44447;DHT22;30152;52.066;5.358;2023-01-19T10:15:44;7.40;99.90
44447;DHT22;30152;52.066;5.358;2023-01-19T10:20:42;6.30;99.90
44447;DHT22;30152;52.066;5.358;2023-01-19T10:26:24;6.30;99.90
44447;DHT22;30152;52.066;5.358;2023-01-19T10:29:05;7.60;99.90
44447;DHT22;30152;52.066;5.358;2023-01-19T10:33:58;6.70;99.90
44447;DHT22;30152;52.066;5.358;2023-01-19T10:36:33;6.80;99.90
44447;DHT22;30152;52.066;5.358;2023-01-19T10:38:58;7.70;99.90
44447;DHT22;30152;52.066;5.358;2023-01-19T10:58:52;7.80;99.90
44447;DHT22;30152;52.066;5.358;2023-01-19T11:01:23;7.40;99.90
44447;DHT22;30152;52.066;5.358;2023-01-19T11:03:49;8.00;99.90
44447;DHT22;30152;52.066;5.358;2023-01-19T11:08:42;8.00;99.90
44447;DHT22;30152;52.066;5.358;2023-01-19T11:13:40;7.80;99.90
44447;DHT22;30152;52.066;5.358;2023-01-19T11:18:36;9.00;99.90
44447;DHT22;30152;52.066;5.358;2023-01-19T11:21:08;9.20;99.90
44447;DHT22;30152;52.066;5.358;2023-01-19T11:23:36;9.00;99.90
44447;DHT22;30152;52.066;5.358;2023-01-19T11:26:08;9.30;99.90
44447;DHT22;30152;52.066;5.358;2023-01-19T11:38:45;11.50;95.90
44447;DHT22;30152;52.066;5.358;2023-01-19T11:41:29;11.30;95.00
44447;DHT22;30152;52.066;5.358;2023-01-19T11:46:40;10.00;92.40
44447;DHT22;30152;52.066;5.358;2023-01-19T11:49:19;10.20;93.90
44447;DHT22;30152;52.066;5.358;2023-01-19T11:54:46;9.60;93.00
44447;DHT22;30152;52.066;5.358;2023-01-19T11:59:41;8.30;95.20
44447;DHT22;30152;52.066;5.358;2023-01-19T12:20:06;10.00;90.80
44447;DHT22;30152;52.066;5.358;2023-01-19T12:22:48;9.70;90.50
44447;DHT22;30152;52.066;5.358;2023-01-19T12:25:25;9.00;90.10
44447;DHT22;30152;52.066;5.358;2023-01-19T12:27:53;9.30;91.40
44447;DHT22;30152;52.066;5.358;2023-01-19T12:30:25;10.40;90.60
44447;DHT22;30152;52.066;5.358;2023-01-19T12:32:51;10.70;90.50
44447;DHT22;30152;52.066;5.358;2023-01-19T13:43:18;7.20;90.10
44447;DHT22;30152;52.066;5.358;2023-01-19T13:48:19;6.70;93.40
44447;DHT22;30152;52.066;5.358;2023-01-19T13:51:03;6.60;93.60
44447;DHT22;30152;52.066;5.358;2023-01-19T13:56:25;6.70;93.50
44447;DHT22;30152;52.066;5.358;2023-01-19T13:59:11;7.10;94.10
44447;DHT22;30152;52.066;5.358;2023-01-19T14:01:42;7.00;94.10
44447;DHT22;30152;52.066;5.358;2023-01-19T14:09:20;6.10;95.50
44447;DHT22;30152;52.066;5.358;2023-01-19T14:12:13;6.80;95.70
44447;DHT22;30152;52.066;5.358;2023-01-19T14:14:40;7.20;93.20
44447;DHT22;30152;52.066;5.358;2023-01-19T14:17:22;7.60;94.10
44447;DHT22;30152;52.066;5.358;2023-01-19T14:19:49;7.90;92.50
44447;DHT22;30152;52.066;5.358;2023-01-19T14:27:14;7.90;93.40
44447;DHT22;30152;52.066;5.358;2023-01-19T14:32:22;7.40;94.30
44447;DHT22;30152;52.066;5.358;2023-01-19T14:37:50;7.30;93.70
44447;DHT22;30152;52.066;5.358;2023-01-19T14:40:18;7.70;95.30
44447;DHT22;30152;52.066;5.358;2023-01-19T14:42:57;7.60;95.20
44447;DHT22;30152;52.066;5.358;2023-01-19T14:45:36;7.10;94.10
44447;DHT22;30152;52.066;5.358;2023-01-19T14:50:38;7.10;93.40
44447;DHT22;30152;52.066;5.358;2023-01-19T14:53:19;6.80;91.80
44447;DHT22;30152;52.066;5.358;2023-01-19T14:55:50;6.60;94.50
44447;DHT22;30152;52.066;5.358;2023-01-19T14:58:18;7.10;94.30
44447;DHT22;30152;52.066;5.358;2023-01-19T15:00:45;6.90;93.80
44447;DHT22;30152;52.066;5.358;2023-01-19T15:03:12;6.80;96.40
44447;DHT22;30152;52.066;5.358;2023-01-19T15:05:44;6.40;96.40
44447;DHT22;30152;52.066;5.358;2023-01-19T15:08:19;6.20;96.30
44447;DHT22;30152;52.066;5.358;2023-01-19T15:10:47;6.60;96.60
44447;DHT22;30152;52.066;5.358;2023-01-19T15:13:19;5.90;95.40
44447;DHT22;30152;52.066;5.358;2023-01-19T15:18:15;6.00;97.00
44447;DHT22;30152;52.066;5.358;2023-01-19T15:20:41;5.60;96.50
44447;DHT22;30152;52.066;5.358;2023-01-19T15:23:09;5.40;94.60
44447;DHT22;30152;52.066;5.358;2023-01-19T15:50:15;4.40;99.90
44447;DHT22;30152;52.066;5.358;2023-01-19T15:52:41;4.80;99.90
44447;DHT22;30152;52.066;5.358;2023-01-19T15:55:10;4.30;99.90
44447;DHT22;30152;52.066;5.358;2023-01-19T16:14:41;3.30;99.90
44447;DHT22;30152;52.066;5.358;2023-01-19T16:17:07;3.30;99.90
44447;DHT22;30152;52.066;5.358;2023-01-19T16:19:32;3.70;99.90
44447;DHT22;30152;52.066;5.358;2023-01-19T16:21:58;3.90;99.90
44447;DHT22;30152;52.066;5.358;2023-01-19T16:24:23;3.50;99.90
44447;DHT22;30152;52.066;5.358;2023-01-19T16:29:15;3.60;99.90
44447;DHT22;30152;52.066;5.358;2023-01-19T16:31:41;3.60;99.90
44447;DHT22;30152;52.066;5.358;2023-01-19T16:34:08;3.40;99.90
44447;DHT22;30152;52.066;5.358;2023-01-19T16:36:35;3.20;99.90
44447;DHT22;30152;52.066;5.358;2023-01-19T16:39:04;3.00;99.90
44447;DHT22;30152;52.066;5.358;2023-01-19T16:41:32;2.80;99.90
44447;DHT22;30152;52.066;5.358;2023-01-19T16:43:58;3.10;99.90
44447;DHT22;30152;52.066;5.358;2023-01-19T16:46:29;2.90;99.90
44447;DHT22;30152;52.066;5.358;2023-01-19T17:11:20;1.90;99.90
44447;DHT22;30152;52.066;5.358;2023-01-19T17:13:47;1.70;99.90
44447;DHT22;30152;52.066;5.358;2023-01-19T17:35:49;2.10;99.90
44447;DHT22;30152;52.066;5.358;2023-01-19T17:38:15;1.30;99.90
44447;DHT22;30152;52.066;5.358;2023-01-19T17:40:41;1.50;99.90
44447;DHT22;30152;52.066;5.358;2023-01-19T17:43:07;1.50;99.90
44447;DHT22;30152;52.066;5.358;2023-01-19T17:45:36;1.20;99.90
